createdAt,value
2017-12-06T00:00:30.842Z,1027.46
2017-12-06T00:01:32.671Z,1027.44
2017-12-06T00:02:34.495Z,1027.47
2017-12-06T00:03:36.386Z,1027.43
2017-12-06T00:04:38.266Z,1027.43
2017-12-06T00:05:40.152Z,1027.44
2017-12-06T00:06:54.296Z,1027.43
2017-12-06T00:07:56.189Z,1027.45
2017-12-06T00:08:58.082Z,1027.51
2017-12-06T00:09:59.959Z,1027.49
2017-12-06T00:11:01.776Z,1027.50
2017-12-06T00:12:03.592Z,1027.51
2017-12-06T00:13:05.477Z,1027.52
2017-12-06T00:14:07.354Z,1027.55
2017-12-06T00:15:09.233Z,1027.53
2017-12-06T00:16:23.396Z,1027.57
2017-12-06T00:17:25.283Z,1027.56
2017-12-06T00:18:27.163Z,1027.58
2017-12-06T00:19:29.041Z,1027.55
2017-12-06T00:20:30.867Z,1027.56
2017-12-06T00:21:32.693Z,1027.50
2017-12-06T00:22:34.574Z,1027.50
2017-12-06T00:23:36.464Z,1027.53
2017-12-06T00:24:38.352Z,1027.50
2017-12-06T00:25:52.510Z,1027.59
2017-12-06T00:26:54.401Z,1027.64
2017-12-06T00:27:56.280Z,1027.57
2017-12-06T00:28:58.173Z,1027.66
2017-12-06T00:29:59.989Z,1027.75
2017-12-06T00:31:01.805Z,1027.60
2017-12-06T00:32:03.684Z,1027.66
2017-12-06T00:33:05.576Z,1027.66
2017-12-06T00:34:07.458Z,1027.71
2017-12-06T00:35:21.609Z,1027.61
2017-12-06T00:36:23.488Z,1027.63
2017-12-06T00:37:25.376Z,1027.60
2017-12-06T00:38:27.255Z,1027.64
2017-12-06T00:39:29.081Z,1027.66
2017-12-06T00:40:30.907Z,1027.63
2017-12-06T00:41:32.786Z,1027.47
2017-12-06T00:42:34.665Z,1027.62
2017-12-06T00:43:36.545Z,1027.61
2017-12-06T00:44:50.755Z,1027.57
2017-12-06T00:45:52.636Z,1027.61
2017-12-06T00:46:54.514Z,1027.62
2017-12-06T00:47:56.392Z,1027.61
2017-12-06T00:48:58.220Z,1027.60
2017-12-06T00:50:00.046Z,1027.62
2017-12-06T00:51:01.926Z,1027.68
2017-12-06T00:52:03.805Z,1027.74
2017-12-06T00:53:05.686Z,1027.63
2017-12-06T00:54:19.847Z,1027.59
2017-12-06T00:55:21.740Z,1027.65
2017-12-06T00:56:23.632Z,1027.59
2017-12-06T00:57:25.513Z,1027.61
2017-12-06T00:58:27.330Z,1027.59
2017-12-06T00:59:29.146Z,1027.57
2017-12-06T01:00:31.027Z,1027.54
2017-12-06T01:01:32.913Z,1027.57
2017-12-06T01:02:34.750Z,1027.54
2017-12-06T01:03:48.959Z,1027.63
2017-12-06T01:04:50.842Z,1027.59
2017-12-06T01:05:52.733Z,1027.57
2017-12-06T01:06:54.622Z,1027.59
2017-12-06T01:07:56.438Z,1027.59
2017-12-06T01:08:58.256Z,1027.64
2017-12-06T01:10:00.135Z,1027.70
2017-12-06T01:11:02.016Z,1027.71
2017-12-06T01:12:03.895Z,1027.76
2017-12-06T01:13:18.057Z,1027.71
2017-12-06T01:14:19.939Z,1027.72
2017-12-06T01:15:21.822Z,1027.71
2017-12-06T01:16:23.702Z,1027.77
2017-12-06T01:17:25.528Z,1027.73
2017-12-06T01:18:27.345Z,1027.75
2017-12-06T01:19:29.224Z,1027.64
2017-12-06T01:20:31.108Z,1027.70
2017-12-06T01:21:32.988Z,1027.69
2017-12-06T01:22:47.152Z,1027.69
2017-12-06T01:23:49.032Z,1027.75
2017-12-06T01:24:50.913Z,1027.68
2017-12-06T01:25:52.793Z,1027.71
2017-12-06T01:26:54.619Z,1027.73
2017-12-06T01:27:56.447Z,1027.69
2017-12-06T01:28:58.328Z,1027.66
2017-12-06T01:30:00.207Z,1027.74
2017-12-06T01:31:02.088Z,1027.69
2017-12-06T01:32:16.239Z,1027.69
2017-12-06T01:33:18.118Z,1027.69
2017-12-06T01:34:19.999Z,1027.71
2017-12-06T01:35:21.879Z,1027.67
2017-12-06T01:36:23.703Z,1027.57
2017-12-06T01:37:25.528Z,1027.71
2017-12-06T01:38:27.419Z,1027.59
2017-12-06T01:39:29.299Z,1027.63
2017-12-06T01:40:31.180Z,1027.70
2017-12-06T01:41:45.343Z,1027.74
2017-12-06T01:42:47.235Z,1027.64
2017-12-06T01:43:49.126Z,1027.60
2017-12-06T01:44:51.014Z,1027.61
2017-12-06T01:45:52.842Z,1027.61
2017-12-06T01:46:54.672Z,1027.60
2017-12-06T01:47:56.548Z,1027.60
2017-12-06T01:48:58.441Z,1027.65
2017-12-06T01:50:00.321Z,1027.64
2017-12-06T01:51:14.472Z,1027.60
2017-12-06T01:52:16.353Z,1027.65
2017-12-06T01:53:18.234Z,1027.64
2017-12-06T01:54:20.114Z,1027.65
2017-12-06T01:55:21.931Z,1027.61
2017-12-06T01:56:23.755Z,1027.62
2017-12-06T01:57:25.644Z,1027.63
2017-12-06T01:58:27.532Z,1027.65
2017-12-06T01:59:29.426Z,1027.64
2017-12-06T02:00:43.626Z,1027.66
2017-12-06T02:01:45.506Z,1027.73
2017-12-06T02:02:47.397Z,1027.72
2017-12-06T02:03:49.278Z,1027.68
2017-12-06T02:04:51.103Z,1027.59
2017-12-06T02:05:52.929Z,1027.57
2017-12-06T02:06:54.820Z,1027.61
2017-12-06T02:07:56.701Z,1027.55
2017-12-06T02:08:58.591Z,1027.60
2017-12-06T02:10:12.742Z,1027.57
2017-12-06T02:11:14.619Z,1027.55
2017-12-06T02:12:16.508Z,1027.63
2017-12-06T02:13:18.387Z,1027.70
2017-12-06T02:14:20.213Z,1027.67
2017-12-06T02:15:22.040Z,1027.58
2017-12-06T02:16:23.933Z,1027.55
2017-12-06T02:17:25.814Z,1027.56
2017-12-06T02:18:27.695Z,1027.54
2017-12-06T02:19:41.847Z,1027.55
2017-12-06T02:20:43.740Z,1027.54
2017-12-06T02:21:45.615Z,1027.54
2017-12-06T02:22:47.495Z,1027.52
2017-12-06T02:23:49.368Z,1027.50
2017-12-06T02:24:51.137Z,1027.57
2017-12-06T02:25:53.032Z,1027.45
2017-12-06T02:26:54.909Z,1027.46
2017-12-06T02:27:56.801Z,1027.46
2017-12-06T02:29:10.950Z,1027.45
2017-12-06T02:30:12.843Z,1027.49
2017-12-06T02:31:14.719Z,1027.43
2017-12-06T02:32:16.599Z,1027.43
2017-12-06T02:33:18.427Z,1027.43
2017-12-06T02:34:20.244Z,1027.30
2017-12-06T02:35:22.123Z,1027.23
2017-12-06T02:36:24.001Z,1027.28
2017-12-06T02:37:25.879Z,1027.37
2017-12-06T02:38:40.080Z,1027.32
2017-12-06T02:39:41.962Z,1027.26
2017-12-06T02:40:43.849Z,1027.22
2017-12-06T02:41:45.741Z,1027.20
2017-12-06T02:42:47.556Z,1027.21
2017-12-06T02:43:49.383Z,1027.22
2017-12-06T02:44:51.272Z,1027.21
2017-12-06T02:45:53.153Z,1027.18
2017-12-06T02:46:55.043Z,1027.11
2017-12-06T02:48:09.204Z,1027.21
2017-12-06T02:49:11.094Z,1027.17
2017-12-06T02:50:12.984Z,1027.17
2017-12-06T02:51:14.865Z,1027.15
2017-12-06T02:52:16.688Z,1027.24
2017-12-06T02:53:18.515Z,1027.13
2017-12-06T02:54:20.407Z,1027.19
2017-12-06T02:55:22.276Z,1027.19
2017-12-06T02:56:24.162Z,1027.14
2017-12-06T02:57:38.310Z,1027.25
2017-12-06T02:58:40.201Z,1027.13
2017-12-06T02:59:42.099Z,1027.20
2017-12-06T03:00:43.969Z,1027.20
2017-12-06T03:01:45.792Z,1027.13
2017-12-06T03:02:47.603Z,1027.14
2017-12-06T03:03:49.491Z,1027.17
2017-12-06T03:04:51.380Z,1027.18
2017-12-06T03:05:53.257Z,1027.17
2017-12-06T03:07:07.413Z,1027.15
2017-12-06T03:08:09.303Z,1027.08
2017-12-06T03:09:11.189Z,1027.07
2017-12-06T03:10:13.078Z,1027.00
2017-12-06T03:11:14.900Z,1027.06
2017-12-06T03:12:16.720Z,1027.05
2017-12-06T03:13:18.612Z,1027.05
2017-12-06T03:14:20.492Z,1027.05
2017-12-06T03:15:22.370Z,1027.04
2017-12-06T03:16:36.516Z,1026.96
2017-12-06T03:17:38.404Z,1026.99
2017-12-06T03:18:40.290Z,1027.00
2017-12-06T03:19:42.165Z,1027.02
2017-12-06T03:20:43.991Z,1026.99
2017-12-06T03:21:45.813Z,1026.95
2017-12-06T03:22:47.691Z,1027.02
2017-12-06T03:23:49.572Z,1026.99
2017-12-06T03:24:51.449Z,1026.88
2017-12-06T03:26:05.644Z,1026.94
2017-12-06T03:27:07.532Z,1026.96
2017-12-06T03:28:09.421Z,1026.97
2017-12-06T03:29:11.306Z,1026.90
2017-12-06T03:30:13.129Z,1026.95
2017-12-06T03:31:14.929Z,1026.86
2017-12-06T03:32:16.809Z,1026.91
2017-12-06T03:33:18.744Z,1026.91
2017-12-06T03:34:20.592Z,1026.89
2017-12-06T03:35:34.742Z,1026.89
2017-12-06T03:36:36.620Z,1026.85
2017-12-06T03:37:38.506Z,1026.93
2017-12-06T03:38:40.386Z,1026.90
2017-12-06T03:39:42.224Z,1026.92
2017-12-06T03:40:44.036Z,1026.84
2017-12-06T03:41:45.931Z,1026.95
2017-12-06T03:42:47.822Z,1026.88
2017-12-06T03:43:49.700Z,1026.91
2017-12-06T03:45:03.846Z,1026.86
2017-12-06T03:46:05.737Z,1026.99
2017-12-06T03:47:07.636Z,1026.98
2017-12-06T03:48:09.523Z,1026.98
2017-12-06T03:49:11.340Z,1027.00
2017-12-06T03:50:13.164Z,1027.03
2017-12-06T03:51:15.043Z,1027.02
2017-12-06T03:52:16.924Z,1027.04
2017-12-06T03:53:18.810Z,1027.01
2017-12-06T03:54:32.959Z,1027.01
2017-12-06T03:55:34.851Z,1027.05
2017-12-06T03:56:36.738Z,1027.00
2017-12-06T03:57:38.624Z,1027.03
2017-12-06T03:58:40.447Z,1026.96
2017-12-06T03:59:42.308Z,1026.97
2017-12-06T04:00:44.198Z,1026.97
2017-12-06T04:01:46.078Z,1026.99
2017-12-06T04:02:47.956Z,1026.92
2017-12-06T04:04:02.106Z,1026.98
2017-12-06T04:05:03.986Z,1026.98
2017-12-06T04:06:05.865Z,1026.95
2017-12-06T04:07:07.753Z,1027.03
2017-12-06T04:08:09.579Z,1027.01
2017-12-06T04:09:11.394Z,1027.03
2017-12-06T04:10:13.270Z,1027.02
2017-12-06T04:11:15.150Z,1027.05
2017-12-06T04:12:17.040Z,1026.99
2017-12-06T04:13:31.199Z,1026.95
2017-12-06T04:14:33.090Z,1027.02
2017-12-06T04:15:34.964Z,1026.93
2017-12-06T04:16:36.840Z,1027.00
2017-12-06T04:17:38.665Z,1026.95
2017-12-06T04:18:40.488Z,1026.98
2017-12-06T04:19:42.380Z,1026.93
2017-12-06T04:20:44.254Z,1026.91
2017-12-06T04:21:46.132Z,1026.95
2017-12-06T04:23:00.292Z,1026.95
2017-12-06T04:24:02.178Z,1026.92
2017-12-06T04:25:04.066Z,1026.95
2017-12-06T04:26:05.944Z,1026.91
2017-12-06T04:27:07.755Z,1026.91
2017-12-06T04:28:09.578Z,1026.93
2017-12-06T04:29:11.455Z,1026.91
2017-12-06T04:30:13.335Z,1026.96
2017-12-06T04:31:15.223Z,1026.98
2017-12-06T04:32:29.377Z,1026.97
2017-12-06T04:33:31.267Z,1026.91
2017-12-06T04:34:33.151Z,1026.89
2017-12-06T04:35:35.042Z,1026.94
2017-12-06T04:36:36.853Z,1026.92
2017-12-06T04:37:38.677Z,1026.92
2017-12-06T04:38:40.558Z,1026.89
2017-12-06T04:39:42.445Z,1026.90
2017-12-06T04:40:44.331Z,1026.86
2017-12-06T04:41:58.492Z,1026.83
2017-12-06T04:43:00.371Z,1026.89
2017-12-06T04:44:02.256Z,1026.85
2017-12-06T04:45:04.143Z,1026.83
2017-12-06T04:46:05.967Z,1026.82
2017-12-06T04:47:07.779Z,1026.97
2017-12-06T04:48:09.665Z,1026.90
2017-12-06T04:49:11.553Z,1026.93
2017-12-06T04:50:13.432Z,1026.96
2017-12-06T04:51:27.589Z,1026.87
2017-12-06T04:52:29.465Z,1026.97
2017-12-06T04:53:31.352Z,1026.88
2017-12-06T04:54:33.248Z,1026.91
2017-12-06T04:55:35.052Z,1026.90
2017-12-06T04:56:36.875Z,1026.84
2017-12-06T04:57:38.767Z,1026.90
2017-12-06T04:58:40.644Z,1026.91
2017-12-06T04:59:42.528Z,1026.98
2017-12-06T05:00:56.825Z,1026.92
2017-12-06T05:01:58.862Z,1026.91
2017-12-06T05:03:00.938Z,1026.87
2017-12-06T05:04:03.027Z,1026.81
2017-12-06T05:05:05.042Z,1026.79
2017-12-06T05:06:06.903Z,1026.90
2017-12-06T05:07:08.784Z,1026.84
2017-12-06T05:08:10.672Z,1026.83
2017-12-06T05:09:12.558Z,1026.88
2017-12-06T05:10:26.714Z,1026.79
2017-12-06T05:11:28.603Z,1026.88
2017-12-06T05:12:30.489Z,1026.82
2017-12-06T05:13:32.379Z,1026.85
2017-12-06T05:14:34.201Z,1026.75
2017-12-06T05:15:36.011Z,1026.75
2017-12-06T05:16:37.888Z,1026.81
2017-12-06T05:17:39.779Z,1026.81
2017-12-06T05:18:41.656Z,1026.76
2017-12-06T05:19:55.863Z,1026.75
2017-12-06T05:20:57.742Z,1026.74
2017-12-06T05:21:59.627Z,1026.78
2017-12-06T05:23:01.515Z,1026.78
2017-12-06T05:24:03.339Z,1026.71
2017-12-06T05:25:05.156Z,1026.73
2017-12-06T05:26:07.028Z,1026.70
2017-12-06T05:27:08.914Z,1026.73
2017-12-06T05:28:10.790Z,1026.73
2017-12-06T05:29:24.988Z,1026.78
2017-12-06T05:30:26.862Z,1026.83
2017-12-06T05:31:28.743Z,1026.69
2017-12-06T05:32:30.622Z,1026.83
2017-12-06T05:33:32.428Z,1026.80
2017-12-06T05:34:34.252Z,1026.87
2017-12-06T05:35:36.140Z,1026.79
2017-12-06T05:36:38.010Z,1026.74
2017-12-06T05:37:39.894Z,1026.82
2017-12-06T05:38:54.054Z,1026.79
2017-12-06T05:39:55.938Z,1026.94
2017-12-06T05:40:57.811Z,1026.81
2017-12-06T05:41:59.700Z,1026.83
2017-12-06T05:43:01.526Z,1026.82
2017-12-06T05:44:03.337Z,1026.86
2017-12-06T05:45:05.225Z,1026.80
2017-12-06T05:46:07.111Z,1026.84
2017-12-06T05:47:09.001Z,1026.83
2017-12-06T05:48:23.159Z,1026.84
2017-12-06T05:49:25.048Z,1026.84
2017-12-06T05:50:26.933Z,1026.80
2017-12-06T05:51:28.821Z,1026.88
2017-12-06T05:52:30.642Z,1026.81
2017-12-06T05:53:32.465Z,1026.83
2017-12-06T05:54:34.355Z,1026.77
2017-12-06T05:55:36.246Z,1026.83
2017-12-06T05:56:38.132Z,1026.82
2017-12-06T05:57:52.288Z,1026.80
2017-12-06T05:58:54.176Z,1026.91
2017-12-06T05:59:56.069Z,1026.81
2017-12-06T06:00:57.942Z,1026.81
2017-12-06T06:01:59.766Z,1026.79
2017-12-06T06:03:01.589Z,1026.79
2017-12-06T06:04:03.479Z,1026.85
2017-12-06T06:05:05.369Z,1026.83
2017-12-06T06:06:07.255Z,1026.82
2017-12-06T06:07:21.403Z,1026.82
2017-12-06T06:08:23.291Z,1026.83
2017-12-06T06:09:25.175Z,1026.82
2017-12-06T06:10:27.064Z,1026.84
2017-12-06T06:11:28.893Z,1026.77
2017-12-06T06:12:30.700Z,1026.79
2017-12-06T06:13:32.579Z,1026.73
2017-12-06T06:14:34.476Z,1026.76
2017-12-06T06:15:36.348Z,1026.82
2017-12-06T06:16:50.507Z,1026.79
2017-12-06T06:17:52.386Z,1026.73
2017-12-06T06:18:54.271Z,1026.75
2017-12-06T06:19:56.148Z,1026.72
2017-12-06T06:20:57.972Z,1026.70
2017-12-06T06:21:59.794Z,1026.69
2017-12-06T06:23:01.683Z,1026.72
2017-12-06T06:24:03.565Z,1026.69
2017-12-06T06:25:05.438Z,1026.64
2017-12-06T06:26:19.596Z,1026.61
2017-12-06T06:27:21.475Z,1026.58
2017-12-06T06:28:23.362Z,1026.64
2017-12-06T06:29:25.240Z,1026.65
2017-12-06T06:30:27.061Z,1026.67
2017-12-06T06:31:28.884Z,1026.69
2017-12-06T06:32:30.773Z,1026.70
2017-12-06T06:33:32.655Z,1026.66
2017-12-06T06:34:34.529Z,1026.73
2017-12-06T06:35:48.690Z,1026.71
2017-12-06T06:36:50.568Z,1026.77
2017-12-06T06:37:52.455Z,1026.76
2017-12-06T06:38:54.346Z,1026.82
2017-12-06T06:39:56.171Z,1026.76
2017-12-06T06:40:57.984Z,1026.82
2017-12-06T06:41:59.864Z,1026.79
2017-12-06T06:43:01.744Z,1026.75
2017-12-06T06:44:03.621Z,1026.73
2017-12-06T06:45:17.829Z,1026.74
2017-12-06T06:46:19.708Z,1026.74
2017-12-06T06:47:21.597Z,1026.77
2017-12-06T06:48:23.478Z,1026.72
2017-12-06T06:49:25.304Z,1026.74
2017-12-06T06:50:27.128Z,1026.69
2017-12-06T06:51:29.019Z,1026.78
2017-12-06T06:52:30.910Z,1026.75
2017-12-06T06:53:32.799Z,1026.73
2017-12-06T06:54:47.007Z,1026.78
2017-12-06T06:55:48.898Z,1026.74
2017-12-06T06:56:50.785Z,1026.80
2017-12-06T06:57:52.675Z,1026.75
2017-12-06T06:58:54.489Z,1026.76
2017-12-06T06:59:56.313Z,1026.76
2017-12-06T07:00:58.202Z,1026.80
2017-12-06T07:02:00.123Z,1026.77
2017-12-06T07:03:01.968Z,1026.87
2017-12-06T07:04:16.120Z,1026.82
2017-12-06T07:05:17.999Z,1026.82
2017-12-06T07:06:19.887Z,1026.87
2017-12-06T07:07:21.768Z,1026.84
2017-12-06T07:08:23.595Z,1026.79
2017-12-06T07:09:25.422Z,1026.83
2017-12-06T07:10:27.301Z,1026.88
2017-12-06T07:11:29.194Z,1026.81
2017-12-06T07:12:31.083Z,1026.77
2017-12-06T07:13:45.242Z,1026.75
2017-12-06T07:14:47.135Z,1026.80
2017-12-06T07:15:49.020Z,1026.69
2017-12-06T07:16:50.907Z,1026.73
2017-12-06T07:17:52.736Z,1026.67
2017-12-06T07:18:54.560Z,1026.70
2017-12-06T07:19:56.451Z,1026.72
2017-12-06T07:20:58.330Z,1026.76
2017-12-06T07:22:00.220Z,1026.74
2017-12-06T07:23:14.370Z,1026.78
2017-12-06T07:24:16.248Z,1026.78
2017-12-06T07:25:18.134Z,1026.75
2017-12-06T07:26:20.025Z,1026.83
2017-12-06T07:27:21.852Z,1026.78
2017-12-06T07:28:23.679Z,1026.80
2017-12-06T07:29:25.567Z,1026.82
2017-12-06T07:30:27.446Z,1026.87
2017-12-06T07:31:29.334Z,1026.88
2017-12-06T07:32:43.485Z,1026.89
2017-12-06T07:33:45.365Z,1026.88
2017-12-06T07:34:47.250Z,1026.90
2017-12-06T07:35:49.142Z,1026.86
2017-12-06T07:36:50.969Z,1026.86
2017-12-06T07:37:52.784Z,1026.89
2017-12-06T07:38:54.679Z,1026.96
2017-12-06T07:39:56.560Z,1026.96
2017-12-06T07:40:58.449Z,1027.03
2017-12-06T07:42:12.602Z,1027.00
2017-12-06T07:43:14.483Z,1027.08
2017-12-06T07:44:16.373Z,1027.01
2017-12-06T07:45:18.556Z,1027.01
2017-12-06T07:46:20.337Z,1026.99
2017-12-06T07:47:22.162Z,1027.01
2017-12-06T07:48:24.053Z,1026.96
2017-12-06T07:49:25.950Z,1027.00
2017-12-06T07:50:27.831Z,1027.00
2017-12-06T07:51:42.062Z,1027.01
2017-12-06T07:52:43.945Z,1027.01
2017-12-06T07:53:45.813Z,1027.04
2017-12-06T07:54:47.705Z,1027.09
2017-12-06T07:55:49.523Z,1027.12
2017-12-06T07:56:51.348Z,1027.12
2017-12-06T07:57:53.236Z,1027.17
2017-12-06T07:58:55.116Z,1027.17
2017-12-06T07:59:57.009Z,1027.14
2017-12-06T08:01:11.172Z,1027.07
2017-12-06T08:02:13.061Z,1027.14
2017-12-06T08:03:14.934Z,1027.16
2017-12-06T08:04:16.811Z,1027.21
2017-12-06T08:05:18.637Z,1027.18
2017-12-06T08:06:20.453Z,1027.23
2017-12-06T08:07:22.347Z,1027.18
2017-12-06T08:08:24.230Z,1027.15
2017-12-06T08:09:26.125Z,1027.21
2017-12-06T08:10:40.293Z,1027.20
2017-12-06T08:11:42.154Z,1027.23
2017-12-06T08:12:44.035Z,1027.23
2017-12-06T08:13:45.914Z,1027.34
2017-12-06T08:14:47.749Z,1027.20
2017-12-06T08:15:49.581Z,1027.20
2017-12-06T08:16:51.460Z,1027.18
2017-12-06T08:17:53.353Z,1027.17
2017-12-06T08:18:55.246Z,1027.23
2017-12-06T08:20:09.408Z,1027.14
2017-12-06T08:21:11.288Z,1027.16
2017-12-06T08:22:13.177Z,1027.17
2017-12-06T08:23:15.056Z,1027.24
2017-12-06T08:24:16.884Z,1027.15
2017-12-06T08:25:18.722Z,1027.08
2017-12-06T08:26:20.595Z,1027.08
2017-12-06T08:27:22.491Z,1027.09
2017-12-06T08:28:24.381Z,1027.11
2017-12-06T08:29:38.549Z,1027.08
2017-12-06T08:30:40.423Z,1027.11
2017-12-06T08:31:42.318Z,1027.21
2017-12-06T08:32:44.199Z,1027.13
2017-12-06T08:33:46.011Z,1027.10
2017-12-06T08:34:47.841Z,1027.14
2017-12-06T08:35:49.721Z,1027.16
2017-12-06T08:36:51.601Z,1027.08
2017-12-06T08:37:53.490Z,1027.13
2017-12-06T08:39:07.652Z,1027.15
2017-12-06T08:40:09.534Z,1027.17
2017-12-06T08:41:11.424Z,1027.04
2017-12-06T08:42:13.320Z,1027.16
2017-12-06T08:43:15.137Z,1027.20
2017-12-06T08:44:16.967Z,1027.20
2017-12-06T08:45:18.850Z,1027.27
2017-12-06T08:46:20.731Z,1027.15
2017-12-06T08:47:22.622Z,1027.16
2017-12-06T08:48:36.775Z,1027.20
2017-12-06T08:49:38.655Z,1027.20
2017-12-06T08:50:40.543Z,1027.25
2017-12-06T08:51:42.424Z,1027.28
2017-12-06T08:52:44.254Z,1027.23
2017-12-06T08:53:46.068Z,1027.20
2017-12-06T08:54:47.949Z,1027.22
2017-12-06T08:55:49.842Z,1027.22
2017-12-06T08:56:51.734Z,1027.25
2017-12-06T08:58:05.895Z,1027.23
2017-12-06T08:59:07.774Z,1027.14
2017-12-06T09:00:09.653Z,1027.19
2017-12-06T09:01:11.533Z,1027.22
2017-12-06T09:02:13.361Z,1027.25
2017-12-06T09:03:15.190Z,1027.24
2017-12-06T09:04:17.081Z,1027.28
2017-12-06T09:05:18.957Z,1027.32
2017-12-06T09:06:20.838Z,1027.29
2017-12-06T09:07:35.051Z,1027.30
2017-12-06T09:08:36.943Z,1027.30
2017-12-06T09:09:38.832Z,1027.30
2017-12-06T09:10:40.724Z,1027.39
2017-12-06T09:11:42.554Z,1027.34
2017-12-06T09:12:44.382Z,1027.34
2017-12-06T09:13:46.264Z,1027.40
2017-12-06T09:14:48.159Z,1027.31
2017-12-06T09:15:50.049Z,1027.61
2017-12-06T09:17:04.199Z,1027.50
2017-12-06T09:18:06.082Z,1027.51
2017-12-06T09:19:07.963Z,1027.44
2017-12-06T09:20:09.846Z,1027.45
2017-12-06T09:21:11.675Z,1027.54
2017-12-06T09:22:13.494Z,1027.47
2017-12-06T09:23:15.376Z,1027.56
2017-12-06T09:24:17.277Z,1027.51
2017-12-06T09:25:19.168Z,1027.54
2017-12-06T09:26:33.313Z,1027.55
2017-12-06T09:27:35.194Z,1027.50
2017-12-06T09:28:37.085Z,1027.51
2017-12-06T09:29:38.980Z,1027.44
2017-12-06T09:30:40.797Z,1027.50
2017-12-06T09:31:42.622Z,1027.50
2017-12-06T09:32:44.514Z,1027.39
2017-12-06T09:33:46.397Z,1027.44
2017-12-06T09:34:48.290Z,1027.30
2017-12-06T09:36:02.455Z,1027.37
2017-12-06T09:37:04.334Z,1027.49
2017-12-06T09:38:06.223Z,1027.33
2017-12-06T09:39:08.114Z,1027.40
2017-12-06T09:40:09.946Z,1027.42
2017-12-06T09:41:11.761Z,1027.42
2017-12-06T09:42:13.644Z,1027.46
2017-12-06T09:43:15.538Z,1027.44
2017-12-06T09:44:17.429Z,1027.49
2017-12-06T09:45:31.591Z,1027.48
2017-12-06T09:46:33.473Z,1027.48
2017-12-06T09:47:35.394Z,1027.44
2017-12-06T09:48:37.271Z,1027.42
2017-12-06T09:49:39.102Z,1027.38
2017-12-06T09:50:40.915Z,1027.32
2017-12-06T09:51:42.804Z,1027.32
2017-12-06T09:52:44.698Z,1027.34
2017-12-06T09:53:46.576Z,1027.38
2017-12-06T09:55:00.723Z,1027.26
2017-12-06T09:56:02.542Z,1027.33
2017-12-06T09:57:04.394Z,1027.34
2017-12-06T09:58:06.288Z,1027.41
2017-12-06T09:59:08.168Z,1027.31
2017-12-06T10:00:10.036Z,1027.36
2017-12-06T10:01:11.854Z,1027.37
2017-12-06T10:02:13.686Z,1027.35
2017-12-06T10:03:15.570Z,1027.39
2017-12-06T10:04:29.787Z,1027.29
2017-12-06T10:05:31.669Z,1027.38
2017-12-06T10:06:33.559Z,1027.33
2017-12-06T10:07:35.454Z,1027.33
2017-12-06T10:08:37.271Z,1027.37
2017-12-06T10:09:39.097Z,1027.27
2017-12-06T10:10:40.991Z,1027.25
2017-12-06T10:11:42.873Z,1027.29
2017-12-06T10:12:44.764Z,1027.32
2017-12-06T10:13:58.926Z,1027.37
2017-12-06T10:15:00.809Z,1027.33
2017-12-06T10:16:02.698Z,1027.34
2017-12-06T10:17:04.610Z,1027.30
2017-12-06T10:18:06.426Z,1027.26
2017-12-06T10:19:08.309Z,1027.30
2017-12-06T10:20:10.140Z,1027.26
2017-12-06T10:21:12.052Z,1027.39
2017-12-06T10:22:13.922Z,1027.36
2017-12-06T10:23:28.080Z,1027.30
2017-12-06T10:24:29.973Z,1027.35
2017-12-06T10:25:31.846Z,1027.33
2017-12-06T10:26:33.729Z,1027.39
2017-12-06T10:27:35.556Z,1027.32
2017-12-06T10:28:37.378Z,1027.34
2017-12-06T10:29:39.260Z,1027.34
2017-12-06T10:30:41.153Z,1027.36
2017-12-06T10:31:43.044Z,1027.27
2017-12-06T10:32:57.205Z,1027.34
2017-12-06T10:33:59.087Z,1027.29
2017-12-06T10:35:01.028Z,1027.28
2017-12-06T10:36:02.880Z,1027.28
2017-12-06T10:37:04.692Z,1027.18
2017-12-06T10:38:06.507Z,1027.18
2017-12-06T10:39:08.402Z,1027.14
2017-12-06T10:40:10.286Z,1027.12
2017-12-06T10:41:12.176Z,1027.03
2017-12-06T10:42:26.344Z,1027.13
2017-12-06T10:43:28.234Z,1026.99
2017-12-06T10:44:30.118Z,1027.01
2017-12-06T10:45:32.015Z,1027.01
2017-12-06T10:46:33.843Z,1027.00
2017-12-06T10:47:35.681Z,1027.00
2017-12-06T10:48:37.561Z,1026.92
2017-12-06T10:49:39.456Z,1026.92
2017-12-06T10:50:41.348Z,1027.04
2017-12-06T10:51:55.498Z,1026.91
2017-12-06T10:52:57.380Z,1026.91
2017-12-06T10:53:59.271Z,1026.88
2017-12-06T10:55:01.162Z,1026.95
2017-12-06T10:56:03.003Z,1026.90
2017-12-06T10:57:04.820Z,1026.89
2017-12-06T10:58:06.697Z,1026.87
2017-12-06T10:59:08.580Z,1026.92
2017-12-06T11:00:10.471Z,1026.88
2017-12-06T11:01:24.634Z,1026.97
2017-12-06T11:02:26.519Z,1026.86
2017-12-06T11:03:28.410Z,1026.83
2017-12-06T11:04:30.304Z,1026.75
2017-12-06T11:05:32.126Z,1026.81
2017-12-06T11:06:33.947Z,1026.76
2017-12-06T11:07:35.824Z,1026.76
2017-12-06T11:08:37.712Z,1026.77
2017-12-06T11:09:39.604Z,1026.76
2017-12-06T11:10:53.765Z,1026.82
2017-12-06T11:11:55.648Z,1026.81
2017-12-06T11:12:57.540Z,1026.81
2017-12-06T11:13:59.434Z,1026.78
2017-12-06T11:15:01.304Z,1026.86
2017-12-06T11:16:03.067Z,1026.82
2017-12-06T11:17:04.962Z,1026.83
2017-12-06T11:18:06.807Z,1026.79
2017-12-06T11:19:08.637Z,1026.73
2017-12-06T11:20:22.792Z,1026.81
2017-12-06T11:21:24.676Z,1026.71
2017-12-06T11:22:26.567Z,1026.80
2017-12-06T11:23:28.464Z,1026.80
2017-12-06T11:24:30.279Z,1026.88
2017-12-06T11:25:32.108Z,1026.84
2017-12-06T11:26:34.001Z,1026.78
2017-12-06T11:27:35.893Z,1026.86
2017-12-06T11:28:37.776Z,1026.85
2017-12-06T11:29:51.929Z,1026.85
2017-12-06T11:30:53.815Z,1026.79
2017-12-06T11:31:55.705Z,1026.84
2017-12-06T11:32:57.594Z,1026.82
2017-12-06T11:33:59.424Z,1026.84
2017-12-06T11:35:01.248Z,1026.84
2017-12-06T11:36:03.175Z,1026.80
2017-12-06T11:37:05.051Z,1026.81
2017-12-06T11:38:06.933Z,1026.80
2017-12-06T11:39:21.102Z,1026.80
2017-12-06T11:40:22.987Z,1026.87
2017-12-06T11:41:24.863Z,1026.84
2017-12-06T11:42:26.748Z,1026.87
2017-12-06T11:43:28.576Z,1026.88
2017-12-06T11:44:30.392Z,1026.90
2017-12-06T11:45:32.286Z,1026.77
2017-12-06T11:46:34.180Z,1026.87
2017-12-06T11:47:36.071Z,1026.83
2017-12-06T11:48:50.222Z,1026.80
2017-12-06T11:49:52.116Z,1026.82
2017-12-06T11:50:54.007Z,1026.84
2017-12-06T11:51:55.902Z,1026.84
2017-12-06T11:52:57.723Z,1026.85
2017-12-06T11:53:59.549Z,1026.87
2017-12-06T11:55:01.443Z,1026.81
2017-12-06T11:56:03.324Z,1026.78
2017-12-06T11:57:05.205Z,1026.77
2017-12-06T11:58:19.367Z,1026.81
2017-12-06T11:59:21.249Z,1026.83
2017-12-06T12:00:23.143Z,1026.80
2017-12-06T12:01:25.034Z,1026.75
2017-12-06T12:02:26.861Z,1026.74
2017-12-06T12:03:28.685Z,1026.75
2017-12-06T12:04:30.576Z,1026.72
2017-12-06T12:05:32.467Z,1026.80
2017-12-06T12:06:34.359Z,1026.85
2017-12-06T12:07:48.564Z,1026.62
2017-12-06T12:08:50.445Z,1026.72
2017-12-06T12:09:52.335Z,1026.67
2017-12-06T12:10:54.230Z,1026.72
2017-12-06T12:11:56.062Z,1026.73
2017-12-06T12:12:57.875Z,1026.76
2017-12-06T12:13:59.762Z,1026.71
2017-12-06T12:15:01.664Z,1026.76
2017-12-06T12:16:03.543Z,1026.63
2017-12-06T12:17:17.712Z,1026.75
2017-12-06T12:18:19.599Z,1026.63
2017-12-06T12:19:21.492Z,1026.74
2017-12-06T12:20:23.388Z,1026.76
2017-12-06T12:21:25.214Z,1026.59
2017-12-06T12:22:27.041Z,1026.52
2017-12-06T12:23:28.938Z,1026.49
2017-12-06T12:24:30.819Z,1026.45
2017-12-06T12:25:32.709Z,1026.55
2017-12-06T12:26:46.923Z,1026.53
2017-12-06T12:27:48.806Z,1026.44
2017-12-06T12:28:50.698Z,1026.50
2017-12-06T12:29:52.590Z,1026.44
2017-12-06T12:30:54.419Z,1026.52
2017-12-06T12:31:56.247Z,1026.52
2017-12-06T12:32:58.140Z,1026.48
2017-12-06T12:34:00.034Z,1026.40
2017-12-06T12:35:01.927Z,1026.38
2017-12-06T12:36:16.089Z,1026.34
2017-12-06T12:37:17.977Z,1026.39
2017-12-06T12:38:19.852Z,1026.43
2017-12-06T12:39:21.735Z,1026.57
2017-12-06T12:40:23.566Z,1026.52
2017-12-06T12:41:25.384Z,1026.50
2017-12-06T12:42:27.277Z,1026.50
2017-12-06T12:43:29.160Z,1026.51
2017-12-06T12:44:31.060Z,1026.42